Time;durP1;ratioP1;P1;durP2;ratioP2;P2;SDS_P1;SDS_P2;PMS_P1;PMS_P2;Temp;Humidity;BMP_temperature;BMP_pressure;BME280_temperature;BME280_humidity;BME280_pressure;Samples;Min_cycle;Max_cycle;Signal;HPM_P1;HPM_P2
2021/01/10 00:01:14;;;;;;;2.78;2.47;;;;;;;-2.00;100.00;100847.25;4915026;28;21280;-76
2021/01/10 00:04:18;;;;;;;3.65;1.63;;;;;;;-2.01;100.00;100850.34;4924738;28;20050;-77
2021/01/10 00:07:25;;;;;;;2.35;2.25;;;;;;;-2.00;100.00;100852.72;4928104;28;20042;-77
2021/01/10 00:10:30;;;;;;;6.95;2.50;;;;;;;-2.01;100.00;100842.16;4934515;28;20065;-76
2021/01/10 00:13:33;;;;;;;9.20;1.88;;;;;;;-2.01;100.00;100847.59;4932788;28;20054;-77
2021/01/10 00:16:39;;;;;;;11.90;3.00;;;;;;;-2.00;100.00;100847.25;4931799;28;20050;-77
2021/01/10 00:19:43;;;;;;;2.88;1.67;;;;;;;-1.93;100.00;100841.13;4921234;28;20050;-76
2021/01/10 00:22:51;;;;;;;7.82;2.65;;;;;;;-1.89;100.00;100831.84;4929477;28;20050;-77
2021/01/10 00:25:55;;;;;;;3.40;2.30;;;;;;;-1.90;100.00;100835.72;4929714;28;20050;-77
2021/01/10 00:28:59;;;;;;;5.45;2.17;;;;;;;-1.86;100.00;100836.53;4931600;28;21136;-76
2021/01/10 00:32:03;;;;;;;7.25;1.90;;;;;;;-1.84;100.00;100828.00;4931870;28;20053;-78
2021/01/10 00:35:07;;;;;;;6.38;1.48;;;;;;;-1.82;100.00;100826.47;4932612;28;20038;-78
2021/01/10 00:38:11;;;;;;;7.60;2.83;;;;;;;-1.76;100.00;100825.00;4950687;28;20069;-78
2021/01/10 00:41:14;;;;;;;8.88;2.33;;;;;;;-1.70;100.00;100823.53;4928830;28;619776;-78
2021/01/10 00:44:18;;;;;;;1.88;1.67;;;;;;;-1.66;100.00;100818.09;4948912;28;20034;-76
2021/01/10 00:47:23;;;;;;;2.78;1.80;;;;;;;-1.63;100.00;100817.38;4951382;28;21040;-76
2021/01/10 00:50:27;;;;;;;15.52;2.90;;;;;;;-1.62;100.00;100825.19;4954287;28;20185;-76
2021/01/10 00:53:30;;;;;;;7.07;3.67;;;;;;;-1.58;100.00;100820.56;4945102;28;20042;-76
2021/01/10 00:56:34;;;;;;;4.25;2.67;;;;;;;-1.56;100.00;100818.25;4957856;28;20050;-76
2021/01/10 00:59:39;;;;;;;8.00;2.90;;;;;;;-1.56;100.00;100801.09;4969864;28;20057;-76
2021/01/10 01:02:42;;;;;;;6.57;3.25;;;;;;;-1.58;100.00;100809.63;4952427;28;20859;-77
2021/01/10 01:05:47;;;;;;;2.47;2.05;;;;;;;-1.57;100.00;100805.75;4937877;28;20057;-77
2021/01/10 01:08:51;;;;;;;8.32;2.25;;;;;;;-1.56;100.00;100807.31;4951081;28;20517;-77
2021/01/10 01:11:55;;;;;;;9.63;2.47;;;;;;;-1.55;100.00;100802.66;4949807;28;20053;-77
2021/01/10 01:14:58;;;;;;;3.95;1.98;;;;;;;-1.56;100.00;100801.84;4948602;28;20049;-78
2021/01/10 01:18:02;;;;;;;2.53;1.98;;;;;;;-1.52;100.00;100801.91;4950617;28;20049;-78
2021/01/10 01:21:05;;;;;;;4.15;1.90;;;;;;;-1.52;100.00;100803.84;4949103;28;20643;-77
2021/01/10 01:24:09;;;;;;;6.10;2.40;;;;;;;-1.52;100.00;100810.13;4948440;28;20049;-77
2021/01/10 01:27:13;;;;;;;2.08;1.88;;;;;;;-1.51;100.00;100814.41;4934797;28;20058;-77
2021/01/10 01:30:16;;;;;;;6.00;1.70;;;;;;;-1.50;100.00;100815.19;4946804;28;20310;-77
2021/01/10 01:33:20;;;;;;;1.85;1.52;;;;;;;-1.52;100.00;100817.50;4945698;28;20152;-78
2021/01/10 01:36:27;;;;;;;2.25;2.08;;;;;;;-1.52;100.00;100814.78;4950303;28;20862;-77
2021/01/10 01:39:31;;;;;;;2.60;1.48;;;;;;;-1.47;100.00;100809.00;4937713;28;20135;-77
2021/01/10 01:42:35;;;;;;;2.88;1.20;;;;;;;-1.43;100.00;100815.28;4949527;28;20077;-77
2021/01/10 01:45:38;;;;;;;6.72;2.25;;;;;;;-1.39;100.00;100822.38;4948798;28;20046;-77
2021/01/10 01:48:42;;;;;;;3.70;3.20;;;;;;;-1.34;100.00;100815.81;4947281;28;20043;-78
2021/01/10 01:51:46;;;;;;;13.20;3.05;;;;;;;-1.28;100.00;100823.31;4932302;28;20141;-77
2021/01/10 01:54:50;;;;;;;1.48;1.17;;;;;;;-1.20;100.00;100813.22;4933394;28;21161;-77
2021/01/10 01:57:53;;;;;;;17.80;3.03;;;;;;;-1.16;100.00;100814.84;4935625;28;20050;-77
2021/01/10 02:00:56;;;;;;;11.27;2.67;;;;;;;-1.11;100.00;100817.25;4928531;28;20157;-78
2021/01/10 02:04:09;;;;;;;4.68;2.05;;;;;;;-1.06;100.00;100818.88;4936964;28;20046;-79
2021/01/10 02:07:34;;;;;;;8.35;3.05;;;;;;;-1.03;100.00;100816.16;4948274;28;20074;-78
2021/01/10 02:10:41;;;;;;;6.40;1.98;;;;;;;-0.99;100.00;100816.19;4945588;28;20836;-78
2021/01/10 02:13:48;;;;;;;9.80;2.38;;;;;;;-0.96;100.00;100818.97;4949083;28;21229;-78
2021/01/10 02:16:53;;;;;;;7.43;2.17;;;;;;;-0.90;100.00;100816.69;4934768;28;20046;-77
2021/01/10 02:20:04;;;;;;;5.50;2.45;;;;;;;-0.88;100.00;100806.16;4947702;28;20122;-78
2021/01/10 02:23:12;;;;;;;18.30;2.70;;;;;;;-0.86;100.00;100807.38;4936904;28;20069;-80
2021/01/10 02:26:16;;;;;;;6.13;2.20;;;;;;;-0.82;100.00;100807.38;4936915;28;21325;-77
2021/01/10 02:29:20;;;;;;;4.10;2.42;;;;;;;-0.80;100.00;100794.91;4937404;28;20049;-78
2021/01/10 02:32:26;;;;;;;1.17;0.88;;;;;;;-0.70;100.00;100793.47;4947726;28;20077;-78
2021/01/10 02:35:31;;;;;;;3.33;2.13;;;;;;;-0.65;100.00;100786.88;4957948;28;20659;-78
2021/01/10 02:38:42;;;;;;;13.75;1.67;;;;;;;-0.61;100.00;100791.19;4969136;28;20080;-78
2021/01/10 02:41:51;;;;;;;6.90;2.45;;;;;;;-0.58;100.00;100784.16;4940107;28;20034;-78
2021/01/10 02:45:02;;;;;;;2.97;1.10;;;;;;;-0.52;100.00;100783.44;4928084;28;20663;-78
2021/01/10 02:48:09;;;;;;;3.72;1.63;;;;;;;-0.47;100.00;100774.91;4954565;28;20053;-78
2021/01/10 02:51:13;;;;;;;1.75;1.30;;;;;;;-0.43;100.00;100780.38;4953880;28;20060;-80
2021/01/10 02:54:19;;;;;;;2.85;1.13;;;;;;;-0.43;100.00;100775.72;4965677;28;21428;-78
2021/01/10 02:57:36;;;;;;;3.80;1.20;;;;;;;-0.38;100.00;100783.56;4966837;28;20125;-76
2021/01/10 03:00:42;;;;;;;2.97;2.35;;;;;;;-0.35;100.00;100782.81;4998837;28;20073;-77
2021/01/10 03:03:46;;;;;;;10.65;2.60;;;;;;;-0.32;100.00;100776.56;5007706;28;20053;-77
2021/01/10 03:06:54;;;;;;;2.30;1.75;;;;;;;-0.29;100.00;100775.03;5007573;28;20049;-77
2021/01/10 03:09:57;;;;;;;5.15;2.30;;;;;;;-0.29;100.00;100775.84;5005609;28;20057;-76
2021/01/10 03:13:01;;;;;;;2.08;1.80;;;;;;;-0.25;100.00;100775.84;5007676;28;20830;-77
2021/01/10 03:16:05;;;;;;;7.05;1.90;;;;;;;-0.24;100.00;100777.44;5007681;28;20168;-77
2021/01/10 03:19:08;;;;;;;3.97;2.40;;;;;;;-0.22;100.00;100770.38;5006985;28;20767;-77
2021/01/10 03:22:11;;;;;;;2.72;1.80;;;;;;;-0.23;100.00;100760.63;5006735;28;20516;-77
2021/01/10 03:25:18;;;;;;;6.13;2.58;;;;;;;-0.23;100.00;100759.81;5007139;28;20161;-77
2021/01/10 03:28:21;;;;;;;11.57;1.88;;;;;;;-0.21;100.00;100766.50;5005326;28;20049;-78
2021/01/10 03:31:25;;;;;;;2.33;1.05;;;;;;;-0.21;100.00;100761.03;5006901;28;20050;-77
2021/01/10 03:34:28;;;;;;;2.03;1.67;;;;;;;-0.19;100.00;100766.91;5003803;28;20050;-78
2021/01/10 03:37:33;;;;;;;1.75;0.95;;;;;;;-0.19;100.00;100764.16;4988531;28;20057;-77
2021/01/10 03:40:37;;;;;;;1.95;0.90;;;;;;;-0.17;100.00;100761.81;4987661;28;20057;-77
2021/01/10 03:43:40;;;;;;;4.47;2.40;;;;;;;-0.17;100.00;100761.81;4989156;28;20065;-77
2021/01/10 03:46:44;;;;;;;5.40;1.85;;;;;;;-0.17;100.00;100766.50;4991697;28;20114;-77
2021/01/10 03:49:47;;;;;;;1.40;1.35;;;;;;;-0.17;100.00;100756.34;4979220;28;20073;-78
2021/01/10 03:52:51;;;;;;;8.02;3.10;;;;;;;-0.13;100.00;100762.63;4991365;28;20061;-78
2021/01/10 03:55:54;;;;;;;6.88;2.15;;;;;;;-0.13;100.00;100754.41;4979342;28;20573;-78
2021/01/10 03:58:57;;;;;;;0.82;0.82;;;;;;;-0.14;100.00;100755.59;4991540;28;20054;-78
2021/01/10 04:02:01;;;;;;;5.10;1.33;;;;;;;-0.10;100.00;100761.09;4991659;28;20069;-78
2021/01/10 04:05:05;;;;;;;2.40;1.60;;;;;;;-0.11;100.00;100754.06;4991308;28;20053;-78
2021/01/10 04:08:09;;;;;;;9.18;1.90;;;;;;;-0.12;100.00;100753.28;4991722;28;20120;-78
2021/01/10 04:11:13;;;;;;;0.93;0.93;;;;;;;-0.11;100.00;100754.81;4991376;28;20164;-77
2021/01/10 04:14:16;;;;;;;6.75;1.88;;;;;;;-0.09;100.00;100741.53;4989585;28;20078;-77
2021/01/10 04:17:20;;;;;;;1.00;1.00;;;;;;;-0.10;100.00;100745.47;4991755;28;20248;-77
2021/01/10 04:20:24;;;;;;;1.58;0.47;;;;;;;-0.06;100.00;100743.53;4991631;28;20057;-77
2021/01/10 04:23:27;;;;;;;1.05;1.05;;;;;;;0.00;100.00;100744.72;4991951;28;20514;-77
2021/01/10 04:26:37;;;;;;;5.90;2.25;;;;;;;0.05;100.00;100740.06;4991780;28;20081;-77
2021/01/10 04:29:41;;;;;;;3.97;1.48;;;;;;;0.10;100.00;100756.13;4979440;28;20053;-78
2021/01/10 04:32:46;;;;;;;4.90;1.88;;;;;;;0.10;100.00;100743.22;4991330;28;20399;-78
2021/01/10 04:35:49;;;;;;;1.20;0.90;;;;;;;0.12;100.00;100751.06;5005889;28;20517;-78
2021/01/10 04:38:53;;;;;;;3.17;1.92;;;;;;;0.14;100.00;100748.72;5010256;28;20056;-78
2021/01/10 04:41:58;;;;;;;1.15;1.05;;;;;;;0.24;100.00;100748.00;5010713;28;20053;-77
2021/01/10 04:45:01;;;;;;;6.70;1.15;;;;;;;0.29;100.00;100744.88;5009780;28;20513;-78
2021/01/10 04:48:07;;;;;;;5.72;0.88;;;;;;;0.30;100.00;100746.47;5010449;28;20061;-77
2021/01/10 04:51:14;;;;;;;2.95;1.15;;;;;;;0.28;100.00;100740.59;4998085;28;20069;-77
2021/01/10 04:54:21;;;;;;;10.38;2.30;;;;;;;0.33;100.00;100742.94;5008524;28;20049;-78
2021/01/10 04:57:31;;;;;;;3.35;2.03;;;;;;;0.39;100.00;100747.66;4998665;28;20057;-78
2021/01/10 05:00:35;;;;;;;2.92;1.48;;;;;;;0.43;100.00;100744.94;5010787;28;20056;-78
2021/01/10 05:03:40;;;;;;;3.60;1.65;;;;;;;0.52;100.00;100743.41;5018423;28;20049;-77
2021/01/10 05:06:45;;;;;;;2.78;1.13;;;;;;;0.52;100.00;100742.66;5021703;28;20321;-77
2021/01/10 05:09:49;;;;;;;5.57;1.67;;;;;;;0.53;100.00;100744.19;5013761;28;20513;-78
2021/01/10 05:12:53;;;;;;;10.13;2.08;;;;;;;0.52;100.00;100737.16;5009443;28;20110;-78
2021/01/10 05:15:56;;;;;;;7.82;1.15;;;;;;;0.50;100.00;100731.25;5009448;28;20391;-77
2021/01/10 05:19:01;;;;;;;1.85;1.75;;;;;;;0.50;100.00;100734.00;5008927;28;20197;-78
2021/01/10 05:22:08;;;;;;;2.10;1.40;;;;;;;0.45;100.00;100724.22;5008970;28;20057;-78
2021/01/10 05:25:13;;;;;;;3.92;2.20;;;;;;;0.44;100.00;100730.06;5008713;28;20061;-78
2021/01/10 05:28:17;;;;;;;7.68;1.58;;;;;;;0.48;100.00;100722.63;5008565;28;20097;-78
2021/01/10 05:31:41;;;;;;;0.60;0.60;;;;;;;0.47;100.00;100723.81;5006826;28;20785;-78
2021/01/10 05:34:58;;;;;;;1.67;1.58;;;;;;;0.49;100.00;100724.22;4990159;28;20700;-78
2021/01/10 05:38:03;;;;;;;0.82;0.75;;;;;;;0.46;100.00;100722.25;4989370;28;20049;-78
2021/01/10 05:41:10;;;;;;;0.93;0.88;;;;;;;0.47;100.00;100719.13;5005190;28;20045;-77
2021/01/10 05:44:14;;;;;;;2.38;0.95;;;;;;;0.49;100.00;100735.19;5009197;28;20406;-77
2021/01/10 05:47:19;;;;;;;12.50;1.33;;;;;;;0.50;100.00;100731.25;5007607;28;20410;-78
2021/01/10 05:50:23;;;;;;;5.63;1.23;;;;;;;0.47;100.00;100724.63;5008486;28;20077;-77
2021/01/10 05:53:26;;;;;;;0.70;0.70;;;;;;;0.50;100.00;100726.56;4996777;28;20418;-77
2021/01/10 05:56:31;;;;;;;6.03;1.38;;;;;;;0.51;100.00;100721.88;5008032;28;20057;-78
2021/01/10 05:59:37;;;;;;;0.63;0.63;;;;;;;0.53;100.00;100727.75;5008160;28;20073;-78
2021/01/10 06:02:40;;;;;;;1.55;1.45;;;;;;;0.53;100.00;100723.06;5008442;28;20045;-77
2021/01/10 06:06:10;;;;;;;4.18;1.55;;;;;;;0.50;100.00;100731.25;4996660;28;20254;-77
2021/01/10 06:09:13;;;;;;;1.48;1.25;;;;;;;0.50;100.00;100734.78;5008498;28;20060;-77
2021/01/10 06:12:21;;;;;;;2.55;0.93;;;;;;;0.50;100.00;100739.47;5007039;28;21035;-77
2021/01/10 06:15:31;;;;;;;2.88;1.08;;;;;;;0.46;100.00;100733.19;5008881;28;20409;-77
2021/01/10 06:18:36;;;;;;;7.47;1.38;;;;;;;0.46;100.00;100738.69;4996632;28;20049;-77
2021/01/10 06:21:46;;;;;;;8.85;3.00;;;;;;;0.49;100.00;100735.19;5008567;28;20430;-77
2021/01/10 06:24:53;;;;;;;5.45;1.83;;;;;;;0.48;100.00;100730.88;5008374;28;20057;-78
2021/01/10 06:28:19;;;;;;;2.30;1.90;;;;;;;0.50;100.00;100734.00;5008426;28;20414;-77
2021/01/10 06:31:29;;;;;;;5.05;2.58;;;;;;;0.49;100.00;100733.22;5006672;28;20061;-76
2021/01/10 06:34:38;;;;;;;2.05;1.40;;;;;;;0.48;100.00;100736.34;5008560;28;20045;-76
2021/01/10 06:37:43;;;;;;;6.93;0.95;;;;;;;0.51;100.00;100736.38;5009026;28;20053;-76
2021/01/10 06:41:12;;;;;;;5.05;1.58;;;;;;;0.52;100.00;100729.69;5021362;28;20056;-81
2021/01/10 06:44:18;;;;;;;3.75;2.55;;;;;;;0.54;100.00;100729.34;5027590;28;20064;-80
2021/01/10 06:47:23;;;;;;;2.38;1.67;;;;;;;0.54;100.00;100726.59;5026249;28;20299;-80
2021/01/10 06:50:27;;;;;;;3.70;1.98;;;;;;;0.52;100.00;100726.19;5015796;28;20401;-80
2021/01/10 06:53:30;;;;;;;3.92;1.55;;;;;;;0.51;100.00;100725.41;5027753;28;20060;-80
2021/01/10 06:56:34;;;;;;;1.58;0.73;;;;;;;0.53;100.00;100711.31;5015972;28;20060;-80
2021/01/10 06:59:57;;;;;;;1.08;0.47;;;;;;;0.58;100.00;100719.16;5014544;28;21758;-80
2021/01/10 07:03:09;;;;;;;2.47;1.75;;;;;;;0.59;100.00;100709.75;5027794;28;20056;-80
2021/01/10 07:06:15;;;;;;;2.30;0.88;;;;;;;0.60;100.00;100703.13;5027382;28;20049;-80
2021/01/10 07:09:22;;;;;;;2.47;0.77;;;;;;;0.61;100.00;100705.47;5026000;28;20048;-80
2021/01/10 07:12:25;;;;;;;0.60;0.60;;;;;;;0.62;100.00;100714.47;5015821;28;20072;-81
2021/01/10 07:15:29;;;;;;;8.23;1.23;;;;;;;0.59;100.00;100707.81;5015653;28;20429;-80
2021/01/10 07:18:48;;;;;;;9.15;1.83;;;;;;;0.57;100.00;100701.16;5016009;28;20072;-80
2021/01/10 07:21:51;;;;;;;2.35;1.02;;;;;;;0.57;100.00;100704.69;5031231;28;20669;-80
2021/01/10 07:24:55;;;;;;;2.85;1.27;;;;;;;0.60;100.00;100701.16;5018982;28;20254;-81
2021/01/10 07:28:32;;;;;;;5.30;2.90;;;;;;;0.60;100.00;100703.13;5030998;28;20052;-80
2021/01/10 07:31:52;;;;;;;4.57;2.70;;;;;;;0.60;100.00;100701.16;5017370;28;20165;-80
2021/01/10 07:34:55;;;;;;;2.50;1.80;;;;;;;0.61;100.00;100707.41;5011222;28;20422;-80
2021/01/10 07:38:06;;;;;;;1.50;1.27;;;;;;;0.58;100.00;100709.00;5010923;28;20049;-81
2021/01/10 07:41:27;;;;;;;2.10;0.80;;;;;;;0.61;100.00;100712.91;4994385;28;20418;-81
2021/01/10 07:44:54;;;;;;;0.73;0.68;;;;;;;0.59;100.00;100698.78;4990241;28;20792;-80
2021/01/10 07:47:58;;;;;;;4.10;1.48;;;;;;;0.62;100.00;100703.53;4979666;28;20071;-80
2021/01/10 07:51:15;;;;;;;1.95;0.98;;;;;;;0.63;100.00;100697.63;4991565;28;20065;-80
2021/01/10 07:55:08;;;;;;;2.35;1.10;;;;;;;0.69;100.00;100709.78;4989891;28;20049;-81
2021/01/10 07:58:11;;;;;;;0.63;0.63;;;;;;;0.70;100.00;100699.63;4991256;28;20065;-80
2021/01/10 08:01:14;;;;;;;3.35;0.70;;;;;;;0.71;100.00;100706.69;4991457;28;20053;-81
2021/01/10 08:04:33;;;;;;;1.60;1.13;;;;;;;0.79;100.00;100705.50;4989562;28;20119;-81
2021/01/10 08:07:45;;;;;;;1.05;0.75;;;;;;;0.80;100.00;100706.31;4991347;28;20061;-81
2021/01/10 08:10:51;;;;;;;;;;;;;;;0.80;100.00;100709.03;4979865;28;20045;-81
2021/01/10 08:13:55;;;;;;;2.10;0.95;;;;;;;0.82;100.00;100706.69;4991272;28;19921;-81
2021/01/10 08:16:58;;;;;;;0.68;0.68;;;;;;;0.80;100.00;100703.56;4979035;28;20411;-81
2021/01/10 08:20:04;;;;;;;6.45;0.70;;;;;;;0.83;100.00;100711.00;4991194;28;20061;-81
2021/01/10 08:23:07;;;;;;;0.50;0.50;;;;;;;0.82;100.00;100706.69;4979305;28;20062;-80
2021/01/10 08:26:14;;;;;;;4.47;1.40;;;;;;;0.82;100.00;100707.50;4990982;28;20057;-80
2021/01/10 08:29:21;;;;;;;1.58;1.48;;;;;;;0.84;100.00;100710.63;4989318;28;20419;-79
2021/01/10 08:32:24;;;;;;;0.45;0.45;;;;;;;0.86;100.00;100708.28;4979001;28;20058;-80
2021/01/10 08:35:27;;;;;;;2.92;0.40;;;;;;;0.89;100.00;100707.47;5003521;28;20057;-80
2021/01/10 08:38:31;;;;;;;2.45;0.70;;;;;;;0.89;100.00;100712.97;5011426;28;20533;-80
2021/01/10 08:41:40;;;;;;;6.22;1.27;;;;;;;0.90;100.00;100717.28;5030846;28;20052;-80
2021/01/10 08:44:44;;;;;;;1.83;0.63;;;;;;;0.94;100.00;100720.03;5030249;28;20056;-80
2021/01/10 08:47:48;;;;;;;2.45;1.10;;;;;;;0.93;100.00;100713.78;5030888;28;20056;-80
2021/01/10 08:50:52;;;;;;;2.92;1.48;;;;;;;0.97;100.00;100725.53;5030525;28;20216;-79
2021/01/10 08:53:55;;;;;;;6.60;1.30;;;;;;;1.02;100.00;100727.88;5018478;28;20052;-80
2021/01/10 08:56:59;;;;;;;1.27;0.63;;;;;;;1.05;100.00;100732.59;5012460;28;20100;-79
2021/01/10 09:00:04;;;;;;;2.28;0.63;;;;;;;1.08;100.00;100731.81;4999135;28;20814;-80
2021/01/10 09:03:18;;;;;;;1.70;0.60;;;;;;;1.17;100.00;100737.69;4990122;28;20815;-80
2021/01/10 09:06:46;;;;;;;2.08;0.98;;;;;;;1.25;100.00;100739.28;4989031;28;20870;-80
2021/01/10 09:10:08;;;;;;;1.00;0.50;;;;;;;1.25;100.00;100736.53;4990519;28;20123;-80
2021/01/10 09:13:14;;;;;;;7.57;1.30;;;;;;;1.25;100.00;100736.53;4990357;28;20422;-81
2021/01/10 09:16:20;;;;;;;0.88;0.63;;;;;;;1.35;100.00;100734.97;4988945;28;20054;-80
2021/01/10 09:19:26;;;;;;;3.03;0.90;;;;;;;1.39;100.00;100725.56;4991884;28;20087;-80
2021/01/10 09:22:31;;;;;;;2.05;1.38;;;;;;;1.42;100.00;100733.00;4993292;28;20510;-79
2021/01/10 09:25:35;;;;;;;5.45;1.52;;;;;;;1.43;100.00;100731.81;5001567;28;20057;-80
2021/01/10 09:28:39;;;;;;;2.30;1.38;;;;;;;1.42;100.00;100734.97;4997743;28;20052;-80
2021/01/10 09:31:45;;;;;;;0.60;0.60;;;;;;;1.49;100.00;100734.97;4994781;28;20061;-80
2021/01/10 09:34:57;;;;;;;5.25;1.45;;;;;;;1.54;100.00;100743.59;5008821;28;20672;-80
2021/01/10 09:38:07;;;;;;;8.65;1.55;;;;;;;1.57;100.00;100735.75;4998085;28;20068;-78
2021/01/10 09:41:15;;;;;;;8.35;0.85;;;;;;;1.61;100.00;100739.25;4976402;28;20054;-79
2021/01/10 09:44:19;;;;;;;2.55;0.68;;;;;;;1.62;100.00;100738.09;4978348;28;20167;-79
2021/01/10 09:47:36;;;;;;;3.95;1.50;;;;;;;1.65;100.00;100740.81;4999561;28;20417;-79
2021/01/10 09:50:40;;;;;;;3.17;1.33;;;;;;;1.72;100.00;100748.28;5009027;28;20073;-81
2021/01/10 09:53:47;;;;;;;5.18;1.13;;;;;;;1.78;100.00;100752.97;5008722;28;20048;-80
2021/01/10 09:56:57;;;;;;;2.55;1.00;;;;;;;1.77;100.00;100750.63;5008675;28;20052;-80
2021/01/10 10:00:05;;;;;;;0.77;0.77;;;;;;;1.81;100.00;100757.69;5008668;28;20074;-79
2021/01/10 10:03:09;;;;;;;6.90;1.88;;;;;;;1.86;100.00;100762.00;5008954;28;20053;-81
2021/01/10 10:06:13;;;;;;;1.70;0.95;;;;;;;1.90;100.00;100757.28;4996060;28;20057;-80
2021/01/10 10:09:17;;;;;;;1.15;0.47;;;;;;;1.95;100.00;100767.88;4994738;28;20049;-80
2021/01/10 10:12:22;;;;;;;4.00;0.98;;;;;;;1.99;100.00;100758.44;4996950;28;20060;-80
2021/01/10 10:15:49;;;;;;;20.52;1.35;;;;;;;2.04;100.00;100757.25;5005835;28;20062;-79
2021/01/10 10:18:57;;;;;;;3.85;1.52;;;;;;;2.08;100.00;100761.56;5002505;28;20859;-78
2021/01/10 10:22:00;;;;;;;3.35;0.82;;;;;;;2.13;100.00;100752.13;5007660;28;20057;-79
2021/01/10 10:25:06;;;;;;;0.65;0.65;;;;;;;2.17;100.00;100748.19;5006225;28;20053;-78
2021/01/10 10:28:11;;;;;;;2.30;0.98;;;;;;;2.20;100.00;100747.41;5008205;28;20685;-78
2021/01/10 10:31:15;;;;;;;3.50;1.38;;;;;;;2.22;100.00;100752.50;5007956;28;20257;-78
2021/01/10 10:34:18;;;;;;;9.82;1.75;;;;;;;2.22;100.00;100750.53;4994741;28;20741;-78
2021/01/10 10:37:23;;;;;;;2.38;0.52;;;;;;;2.27;100.00;100754.84;5017159;28;20056;-77
2021/01/10 10:40:26;;;;;;;3.20;1.20;;;;;;;2.26;100.00;100743.06;5017459;28;20520;-78
2021/01/10 10:43:29;;;;;;;4.75;1.05;;;;;;;2.26;100.00;100739.53;5014468;28;20054;-79
2021/01/10 10:46:33;;;;;;;1.65;0.60;;;;;;;2.28;100.00;100742.66;5015134;28;20049;-78
2021/01/10 10:49:37;;;;;;;7.13;1.38;;;;;;;2.30;100.00;100737.56;5005440;28;20442;-79
2021/01/10 10:52:42;;;;;;;2.40;1.20;;;;;;;2.39;100.00;100735.16;5016984;28;20048;-78
2021/01/10 10:55:45;;;;;;;2.22;0.82;;;;;;;2.40;100.00;100734.00;5017826;28;20040;-79
2021/01/10 10:58:49;;;;;;;4.68;1.27;;;;;;;2.43;100.00;100727.69;5013406;28;20053;-78
2021/01/10 11:01:53;;;;;;;1.40;1.05;;;;;;;2.46;100.00;100729.66;5013070;28;20044;-79
2021/01/10 11:04:56;;;;;;;3.20;1.25;;;;;;;2.50;100.00;100721.38;5013622;28;20572;-79
2021/01/10 11:08:00;;;;;;;0.93;0.50;;;;;;;2.53;100.00;100718.63;5016483;28;20057;-79
2021/01/10 11:11:04;;;;;;;3.33;1.45;;;;;;;2.57;100.00;100716.63;5004783;28;20141;-79
2021/01/10 11:14:08;;;;;;;3.42;1.42;;;;;;;2.60;100.00;100715.81;5017638;28;20367;-79
2021/01/10 11:17:15;;;;;;;2.22;0.80;;;;;;;2.66;100.00;100710.69;5013566;28;20379;-78
2021/01/10 11:20:18;;;;;;;2.65;1.27;;;;;;;2.73;100.00;100711.44;5020014;28;20049;-79
2021/01/10 11:23:22;;;;;;;5.07;1.55;;;;;;;2.79;100.00;100701.59;5027687;28;20425;-78
2021/01/10 11:26:26;;;;;;;2.08;1.02;;;;;;;2.81;100.00;100712.97;5015606;28;20519;-78
2021/01/10 11:29:30;;;;;;;1.92;0.90;;;;;;;2.84;100.00;100714.91;5027692;28;20060;-78
2021/01/10 11:32:34;;;;;;;3.47;0.65;;;;;;;2.89;100.00;100717.25;5027498;28;20426;-78
2021/01/10 11:35:39;;;;;;;5.43;1.48;;;;;;;2.95;100.00;100715.63;5014103;28;20076;-79
2021/01/10 11:38:42;;;;;;;12.02;2.22;;;;;;;3.00;100.00;100715.22;4995661;28;20053;-78
2021/01/10 11:41:51;;;;;;;4.57;1.33;;;;;;;3.05;100.00;100706.50;4995729;28;20068;-78
2021/01/10 11:44:54;;;;;;;2.95;1.52;;;;;;;3.10;100.00;100699.78;5006628;28;20068;-78
2021/01/10 11:47:58;;;;;;;3.17;0.98;;;;;;;3.15;100.00;100704.09;5007645;28;20508;-80
2021/01/10 11:51:02;;;;;;;5.35;1.48;;;;;;;3.18;100.00;100701.34;5006939;28;20061;-78
2021/01/10 11:54:06;;;;;;;2.85;1.65;;;;;;;3.23;100.00;100702.88;5007364;28;20409;-78
2021/01/10 11:57:12;;;;;;;0.80;0.40;;;;;;;3.26;100.00;100713.06;5007764;28;20057;-78
2021/01/10 12:00:16;;;;;;;2.33;0.80;;;;;;;3.27;100.00;100709.13;5010202;28;20095;-77
2021/01/10 12:03:21;;;;;;;0.35;0.35;;;;;;;3.29;100.00;100712.25;5007194;28;20844;-77
2021/01/10 12:06:25;;;;;;;1.83;0.65;;;;;;;3.23;100.00;100714.63;5012479;28;20505;-77
2021/01/10 12:09:28;;;;;;;7.22;1.80;;;;;;;3.21;100.00;100710.72;5011539;28;20048;-78
2021/01/10 12:12:32;;;;;;;4.57;1.08;;;;;;;3.20;100.00;100696.19;5011229;28;20521;-77
2021/01/10 12:15:36;;;;;;;4.00;1.23;;;;;;;3.20;100.00;100682.44;5011128;28;20409;-78
2021/01/10 12:18:40;;;;;;;5.07;1.75;;;;;;;3.22;100.00;100682.81;5011186;28;20053;-76
2021/01/10 12:21:44;;;;;;;7.88;1.92;;;;;;;3.26;100.00;100680.03;5010587;28;20053;-77
2021/01/10 12:24:48;;;;;;;5.32;1.92;;;;;;;3.29;100.00;100671.72;5010364;28;20595;-78
2021/01/10 12:27:52;;;;;;;1.95;0.85;;;;;;;3.34;100.00;100670.50;4998835;28;20856;-78
2021/01/10 12:30:55;;;;;;;12.30;1.98;;;;;;;3.40;100.00;100677.16;5010125;28;20513;-77
2021/01/10 12:33:58;;;;;;;2.83;0.50;;;;;;;3.44;100.00;100664.94;5011005;28;20157;-77
2021/01/10 12:37:01;;;;;;;2.03;0.77;;;;;;;3.47;100.00;100666.06;4990039;28;20057;-78
2021/01/10 12:40:06;;;;;;;2.15;1.02;;;;;;;3.49;100.00;100666.44;4989559;28;20199;-79
2021/01/10 12:43:10;;;;;;;2.72;1.30;;;;;;;3.48;100.00;100675.91;4990090;28;20737;-78
2021/01/10 12:46:13;;;;;;;13.88;1.38;;;;;;;3.49;100.00;100671.94;4989479;28;20065;-78
2021/01/10 12:49:17;;;;;;;4.63;1.55;;;;;;;3.50;100.00;100665.25;4988943;28;20663;-78
2021/01/10 12:52:21;;;;;;;3.05;1.13;;;;;;;3.54;100.00;100650.28;5016892;28;20502;-79
2021/01/10 12:55:24;;;;;;;4.20;1.17;;;;;;;3.58;100.00;100652.97;5016918;28;20065;-79
2021/01/10 12:58:28;;;;;;;1.45;1.08;;;;;;;3.64;100.00;100645.81;5017394;28;20053;-80
2021/01/10 13:01:35;;;;;;;1.80;0.85;;;;;;;3.69;100.00;100645.41;5015233;28;20065;-79
2021/01/10 13:04:39;;;;;;;0.60;0.60;;;;;;;3.70;100.00;100627.69;5006411;28;20057;-80
2021/01/10 13:07:47;;;;;;;3.72;0.88;;;;;;;3.76;100.00;100626.03;5016076;28;20073;-78
2021/01/10 13:10:50;;;;;;;1.88;0.52;;;;;;;3.80;100.00;100627.56;5017189;28;20836;-78
2021/01/10 13:13:54;;;;;;;1.00;0.47;;;;;;;3.79;100.00;100614.19;5010636;28;20817;-78
2021/01/10 13:16:57;;;;;;;1.63;0.43;;;;;;;3.80;100.00;100621.28;5008901;28;20049;-78
2021/01/10 13:20:01;;;;;;;2.13;0.75;;;;;;;3.81;100.00;100614.59;4993408;28;20069;-82
2021/01/10 13:23:04;;;;;;;0.40;0.22;;;;;;;3.84;100.00;100611.00;5008777;28;20049;-78
2021/01/10 13:26:07;;;;;;;1.67;0.77;;;;;;;3.89;100.00;100607.00;4996322;28;20434;-77
2021/01/10 13:29:11;;;;;;;1.42;0.47;;;;;;;3.90;100.00;100595.56;4996415;28;21116;-77
2021/01/10 13:32:15;;;;;;;0.50;0.45;;;;;;;3.92;100.00;100604.19;5008250;28;20057;-77
2021/01/10 13:35:19;;;;;;;0.50;0.47;;;;;;;3.96;100.00;100595.91;5019075;28;20489;-79
2021/01/10 13:38:23;;;;;;;1.15;0.60;;;;;;;3.98;100.00;100593.50;5029514;28;20061;-78
2021/01/10 13:41:27;;;;;;;0.68;0.45;;;;;;;4.06;100.00;100601.28;5017063;28;20049;-78
2021/01/10 13:44:30;;;;;;;4.70;1.40;;;;;;;4.19;100.00;100602.28;4996274;28;20049;-78
2021/01/10 13:47:36;;;;;;;4.90;0.85;;;;;;;4.23;100.00;100592.00;4989565;28;20061;-77
2021/01/10 13:50:40;;;;;;;22.80;5.13;;;;;;;4.29;100.00;100597.81;4990216;28;20053;-80
2021/01/10 13:53:45;;;;;;;13.38;3.10;;;;;;;4.34;100.00;100600.91;4997242;28;20657;-81
2021/01/10 13:56:48;;;;;;;13.13;2.45;;;;;;;4.36;100.00;100592.19;4980493;28;20069;-76
2021/01/10 13:59:52;;;;;;;30.17;5.10;;;;;;;4.36;100.00;100595.75;4990768;28;20053;-80
2021/01/10 14:02:56;;;;;;;35.63;3.42;;;;;;;4.35;100.00;100596.94;4979886;28;20049;-83
2021/01/10 14:06:00;;;;;;;17.40;5.45;;;;;;;4.28;100.00;100579.72;4975902;28;20858;-82
2021/01/10 14:09:04;;;;;;;10.88;1.77;;;;;;;4.26;100.00;100587.63;4988754;28;20054;-81
2021/01/10 14:12:12;;;;;;;8.52;3.08;;;;;;;4.21;100.00;100590.84;4988950;28;20399;-83
2021/01/10 14:15:16;;;;;;;3.08;0.82;;;;;;;4.19;100.00;100591.25;4976727;28;20076;-82
2021/01/10 14:18:20;;;;;;;5.95;1.85;;;;;;;4.14;100.00;100597.22;4974540;28;20394;-79
2021/01/10 14:21:35;;;;;;;1.60;1.02;;;;;;;4.13;100.00;100594.91;4987541;28;20062;-77